Time;durP1;ratioP1;P1;durP2;ratioP2;P2;SDS_P1;SDS_P2;PMS_P1;PMS_P2;Temp;Humidity;BMP_temperature;BMP_pressure;BME280_temperature;BME280_humidity;BME280_pressure;Samples;Min_cycle;Max_cycle;Signal;HPM_P1;HPM_P2
2022/11/25 00:00:50;;;;;;;14.85;13.45;;;;;;;;;;5058567;28;20232;-70
2022/11/25 00:03:18;;;;;;;14.68;13.25;;;;;;;;;;5039676;28;20221;-69
2022/11/25 00:05:46;;;;;;;14.23;12.85;;;;;;;;;;5052776;28;20488;-69
2022/11/25 00:08:14;;;;;;;14.13;12.82;;;;;;;;;;5058118;28;20197;-69
2022/11/25 00:10:42;;;;;;;14.23;12.93;;;;;;;;;;5058919;28;20532;-69
2022/11/25 00:13:11;;;;;;;13.68;12.27;;;;;;;;;;5058899;28;20692;-69
2022/11/25 00:15:39;;;;;;;13.05;11.85;;;;;;;;;;5057775;28;20582;-69
2022/11/25 00:18:07;;;;;;;13.25;11.98;;;;;;;;;;5039086;28;20217;-69
2022/11/25 00:20:35;;;;;;;12.40;11.20;;;;;;;;;;5039965;28;20572;-69
2022/11/25 00:23:03;;;;;;;12.48;11.27;;;;;;;;;;5038675;28;20533;-69
2022/11/25 00:25:31;;;;;;;12.20;11.10;;;;;;;;;;5038563;28;20208;-69
2022/11/25 00:27:59;;;;;;;11.93;10.82;;;;;;;;;;5038794;28;20244;-69
2022/11/25 00:30:28;;;;;;;11.30;10.20;;;;;;;;;;5037976;28;20202;-69
2022/11/25 00:32:56;;;;;;;10.77;9.68;;;;;;;;;;5056592;28;20189;-69
2022/11/25 00:35:24;;;;;;;10.93;9.88;;;;;;;;;;5058665;28;20832;-69
2022/11/25 00:37:51;;;;;;;10.50;9.60;;;;;;;;;;5058338;28;20217;-69
2022/11/25 00:40:19;;;;;;;10.82;9.82;;;;;;;;;;5058378;28;20197;-69
2022/11/25 00:45:34;;;;;;;10.32;9.38;;;;;;;;;;5053186;28;20280;-69
2022/11/25 00:48:01;;;;;;;9.68;8.77;;;;;;;;;;5039658;28;20198;-69
2022/11/25 00:50:29;;;;;;;9.45;8.65;;;;;;;;;;5038834;28;20491;-69
2022/11/25 00:52:57;;;;;;;9.00;8.20;;;;;;;;;;5039146;28;20282;-70
2022/11/25 00:56:11;;;;;;;9.43;8.52;;;;;;;;;;5039972;28;20205;-69
2022/11/25 00:58:13;;;;;;;9.10;8.30;;;;;;;;;;5057521;28;20624;-69
2022/11/25 01:00:42;;;;;;;8.35;7.63;;;;;;;;;;5057670;28;20235;-69
2022/11/25 01:03:12;;;;;;;8.15;7.38;;;;;;;;;;5039014;28;20618;-69
2022/11/25 01:05:39;;;;;;;8.60;7.80;;;;;;;;;;5038435;28;20205;-69
2022/11/25 01:08:07;;;;;;;8.15;7.40;;;;;;;;;;5038284;28;20291;-69
2022/11/25 01:10:35;;;;;;;7.68;7.05;;;;;;;;;;5038397;28;20205;-69
2022/11/25 01:13:03;;;;;;;7.75;7.05;;;;;;;;;;5038413;28;20194;-69
2022/11/25 01:15:31;;;;;;;7.82;7.13;;;;;;;;;;5037823;28;20221;-69
2022/11/25 01:18:00;;;;;;;7.55;6.85;;;;;;;;;;5038932;28;20289;-69
2022/11/25 01:20:28;;;;;;;7.32;6.72;;;;;;;;;;5038142;28;20205;-69
2022/11/25 01:22:56;;;;;;;7.25;6.55;;;;;;;;;;5042567;28;20228;-69
2022/11/25 01:25:23;;;;;;;6.95;6.35;;;;;;;;;;5057332;28;20208;-69
2022/11/25 01:27:51;;;;;;;7.00;6.38;;;;;;;;;;5057927;28;20242;-69
2022/11/25 01:30:19;;;;;;;9.18;6.47;;;;;;;;;;5057648;28;20200;-69
2022/11/25 01:32:47;;;;;;;6.45;5.85;;;;;;;;;;5040368;28;20198;-69
2022/11/25 01:35:16;;;;;;;6.18;5.68;;;;;;;;;;5037798;28;20205;-69
2022/11/25 01:37:45;;;;;;;5.95;5.45;;;;;;;;;;5057682;28;20201;-69
2022/11/25 01:40:12;;;;;;;6.10;5.50;;;;;;;;;;5057489;28;20201;-69
2022/11/25 01:42:43;;;;;;;6.03;5.40;;;;;;;;;;5057330;28;20254;-69
2022/11/25 01:45:41;;;;;;;5.63;5.13;;;;;;;;;;5057921;28;20213;-69
2022/11/25 01:48:12;;;;;;;5.57;5.07;;;;;;;;;;4957538;29;20208;-69
2022/11/25 01:50:42;;;;;;;5.30;4.80;;;;;;;;;;5037178;28;20200;-69
2022/11/25 01:53:11;;;;;;;5.65;5.15;;;;;;;;;;5042178;28;20217;-69
2022/11/25 01:55:41;;;;;;;5.43;4.90;;;;;;;;;;5049221;28;20790;-69
2022/11/25 01:58:11;;;;;;;4.90;4.50;;;;;;;;;;5037457;28;20205;-69
2022/11/25 02:00:39;;;;;;;5.00;4.60;;;;;;;;;;5038670;28;20232;-69
2022/11/25 02:03:07;;;;;;;4.85;4.38;;;;;;;;;;5038581;28;20308;-69
2022/11/25 02:05:39;;;;;;;4.70;4.30;;;;;;;;;;5038970;28;20213;-69
2022/11/25 02:08:09;;;;;;;4.38;3.97;;;;;;;;;;5057463;28;20212;-69
2022/11/25 02:10:36;;;;;;;4.15;3.83;;;;;;;;;;5057213;28;20208;-69
2022/11/25 02:13:04;;;;;;;4.20;3.80;;;;;;;;;;5057502;28;20202;-69
2022/11/25 02:15:34;;;;;;;4.53;4.13;;;;;;;;;;5055646;28;20205;-69
2022/11/25 02:18:02;;;;;;;4.40;4.00;;;;;;;;;;5055796;28;20201;-69
2022/11/25 02:20:30;;;;;;;4.35;3.95;;;;;;;;;;5056937;28;20274;-69
2022/11/25 02:23:01;;;;;;;4.13;3.72;;;;;;;;;;5057157;28;20231;-69
2022/11/25 02:25:31;;;;;;;4.07;3.67;;;;;;;;;;5046818;28;20213;-69
2022/11/25 02:28:01;;;;;;;3.80;3.50;;;;;;;;;;5037354;28;20491;-69
2022/11/25 02:30:29;;;;;;;3.55;3.25;;;;;;;;;;5037014;28;20209;-69
2022/11/25 02:32:58;;;;;;;3.80;3.50;;;;;;;;;;5038320;28;20205;-69
2022/11/25 02:35:28;;;;;;;3.47;3.17;;;;;;;;;;5037313;28;20202;-69
2022/11/25 02:37:57;;;;;;;3.58;3.28;;;;;;;;;;5056919;28;20204;-69
2022/11/25 02:40:26;;;;;;;3.55;3.25;;;;;;;;;;5056958;28;20220;-69
2022/11/25 02:42:57;;;;;;;3.65;3.35;;;;;;;;;;5056851;28;20205;-69
2022/11/25 02:45:29;;;;;;;3.30;3.00;;;;;;;;;;5056700;28;20224;-69
2022/11/25 02:47:57;;;;;;;3.63;2.95;;;;;;;;;;5057296;28;20729;-69
2022/11/25 02:50:26;;;;;;;3.08;2.88;;;;;;;;;;5053801;28;20201;-69
2022/11/25 02:52:53;;;;;;;2.90;2.70;;;;;;;;;;5056633;28;20201;-69
2022/11/25 02:55:21;;;;;;;2.92;2.70;;;;;;;;;;5055091;28;20268;-69
2022/11/25 02:57:49;;;;;;;2.90;2.70;;;;;;;;;;5037974;28;20230;-69
2022/11/25 03:00:19;;;;;;;3.03;2.83;;;;;;;;;;5036720;28;20260;-69
2022/11/25 03:02:47;;;;;;;2.80;2.60;;;;;;;;;;5051319;28;20591;-69
2022/11/25 03:05:15;;;;;;;2.75;2.55;;;;;;;;;;5055754;28;20505;-69
2022/11/25 03:07:43;;;;;;;4.00;2.40;;;;;;;;;;5056467;28;20646;-69
2022/11/25 03:10:10;;;;;;;2.65;2.45;;;;;;;;;;5056764;28;20583;-69
2022/11/25 03:12:38;;;;;;;2.75;2.33;;;;;;;;;;5047926;28;20202;-69
2022/11/25 03:15:06;;;;;;;2.35;2.15;;;;;;;;;;5038487;28;20208;-69
2022/11/25 03:17:35;;;;;;;2.45;2.25;;;;;;;;;;5040847;28;20795;-69
2022/11/25 03:20:03;;;;;;;2.20;2.00;;;;;;;;;;5040412;28;20205;-69
2022/11/25 03:22:30;;;;;;;2.47;2.28;;;;;;;;;;5040633;28;20205;-70
2022/11/25 03:24:58;;;;;;;2.40;2.20;;;;;;;;;;5047842;28;20228;-69
2022/11/25 03:27:26;;;;;;;2.25;2.05;;;;;;;;;;5047846;28;20198;-69
2022/11/25 03:29:54;;;;;;;2.40;2.20;;;;;;;;;;5039972;28;20309;-69
2022/11/25 03:32:21;;;;;;;2.30;2.10;;;;;;;;;;5040377;28;20202;-70
2022/11/25 03:34:51;;;;;;;2.58;2.08;;;;;;;;;;5039599;28;20366;-69
2022/11/25 03:37:18;;;;;;;2.42;2.10;;;;;;;;;;5039906;28;20202;-69
2022/11/25 03:39:47;;;;;;;2.15;1.92;;;;;;;;;;5039844;28;20583;-69
2022/11/25 03:42:16;;;;;;;2.08;1.88;;;;;;;;;;5057996;28;20205;-69
2022/11/25 03:44:44;;;;;;;1.92;1.83;;;;;;;;;;5059330;28;20290;-69
2022/11/25 03:47:11;;;;;;;2.35;2.00;;;;;;;;;;5054347;28;20291;-69
2022/11/25 03:49:39;;;;;;;2.20;2.00;;;;;;;;;;5040218;28;20229;-70
2022/11/25 03:52:08;;;;;;;1.88;1.77;;;;;;;;;;5040500;28;20252;-69
2022/11/25 03:54:36;;;;;;;2.00;1.80;;;;;;;;;;5043710;28;20243;-69
2022/11/25 03:57:04;;;;;;;1.77;1.67;;;;;;;;;;5058876;28;20311;-69
2022/11/25 03:59:31;;;;;;;1.70;1.60;;;;;;;;;;5057094;28;20229;-69
2022/11/25 04:01:59;;;;;;;3.15;1.98;;;;;;;;;;5051195;28;20604;-69
2022/11/25 04:04:27;;;;;;;1.85;1.75;;;;;;;;;;5039669;28;20249;-69
2022/11/25 04:06:55;;;;;;;1.70;1.50;;;;;;;;;;5038389;28;20209;-69
2022/11/25 04:09:25;;;;;;;2.00;1.80;;;;;;;;;;5039317;28;20209;-69
2022/11/25 04:14:38;;;;;;;1.70;1.60;;;;;;;;;;5058921;28;20274;-69
2022/11/25 04:17:05;;;;;;;2.13;1.65;;;;;;;;;;5058932;28;20258;-69
2022/11/25 04:19:33;;;;;;;1.60;1.50;;;;;;;;;;5059186;28;20205;-69
2022/11/25 04:22:01;;;;;;;1.90;1.70;;;;;;;;;;5057557;28;20197;-69
2022/11/25 04:24:30;;;;;;;1.73;1.63;;;;;;;;;;5045745;28;20229;-69
2022/11/25 04:26:58;;;;;;;1.55;1.45;;;;;;;;;;5038184;28;20319;-69
2022/11/25 04:29:26;;;;;;;1.42;1.30;;;;;;;;;;5042433;28;20247;-69
2022/11/25 04:31:54;;;;;;;1.58;1.48;;;;;;;;;;5050834;28;20248;-69
2022/11/25 04:34:21;;;;;;;1.77;1.40;;;;;;;;;;5038546;28;20198;-69
2022/11/25 04:36:50;;;;;;;1.70;1.60;;;;;;;;;;5038998;28;20209;-69
2022/11/25 04:39:17;;;;;;;1.70;1.60;;;;;;;;;;5038402;28;20267;-69
2022/11/25 04:41:46;;;;;;;1.98;1.60;;;;;;;;;;5038215;28;20267;-69
2022/11/25 04:44:14;;;;;;;1.63;1.52;;;;;;;;;;5038002;28;20308;-69
2022/11/25 04:46:43;;;;;;;1.52;1.42;;;;;;;;;;5039264;28;20598;-69
2022/11/25 04:49:11;;;;;;;1.70;1.60;;;;;;;;;;5057952;28;20433;-69
2022/11/25 04:51:39;;;;;;;1.60;1.50;;;;;;;;;;5057603;28;20605;-69
2022/11/25 04:54:07;;;;;;;1.35;1.25;;;;;;;;;;5057379;28;20198;-69
2022/11/25 04:56:34;;;;;;;1.50;1.40;;;;;;;;;;5044934;28;20197;-69
2022/11/25 05:01:48;;;;;;;1.58;1.45;;;;;;;;;;5031535;28;20347;-69
2022/11/25 05:04:15;;;;;;;1.40;1.30;;;;;;;;;;5036590;28;20225;-69
2022/11/25 05:06:43;;;;;;;1.40;1.30;;;;;;;;;;5037326;28;20595;-69
2022/11/25 05:09:10;;;;;;;1.48;1.38;;;;;;;;;;5037722;28;20202;-69
2022/11/25 05:11:38;;;;;;;1.50;1.40;;;;;;;;;;5037628;28;20214;-69
2022/11/25 05:14:07;;;;;;;1.27;1.17;;;;;;;;;;5037121;28;20197;-69
2022/11/25 05:16:36;;;;;;;1.33;1.23;;;;;;;;;;5037571;28;20225;-69
2022/11/25 05:19:03;;;;;;;1.20;1.10;;;;;;;;;;5026007;28;20705;-69
2022/11/25 05:21:31;;;;;;;1.40;1.30;;;;;;;;;;5017956;28;20207;-69
2022/11/25 05:23:58;;;;;;;1.48;1.38;;;;;;;;;;5017545;28;20262;-68
2022/11/25 05:26:26;;;;;;;1.30;1.20;;;;;;;;;;5017436;28;20212;-69
2022/11/25 05:28:53;;;;;;;1.30;1.20;;;;;;;;;;5017290;28;20308;-69
2022/11/25 05:31:22;;;;;;;1.58;1.23;;;;;;;;;;5020438;28;20198;-69
2022/11/25 05:33:49;;;;;;;1.20;1.10;;;;;;;;;;5036197;28;20221;-69
2022/11/25 05:36:16;;;;;;;1.02;1.00;;;;;;;;;;5037229;28;20206;-69
2022/11/25 05:38:44;;;;;;;1.17;1.08;;;;;;;;;;5017826;28;20500;-69
2022/11/25 05:41:12;;;;;;;1.25;1.15;;;;;;;;;;5016754;28;20206;-69
2022/11/25 05:43:39;;;;;;;1.38;1.27;;;;;;;;;;5016542;28;20670;-69
2022/11/25 05:46:07;;;;;;;1.27;1.17;;;;;;;;;;5016385;28;20217;-69
2022/11/25 05:48:36;;;;;;;1.02;1.02;;;;;;;;;;5031603;28;20847;-69
2022/11/25 05:51:04;;;;;;;1.23;1.13;;;;;;;;;;5035579;28;20225;-69
2022/11/25 05:53:31;;;;;;;1.38;1.20;;;;;;;;;;5032534;28;20208;-69
2022/11/25 05:56:00;;;;;;;1.10;1.00;;;;;;;;;;5034475;28;20202;-70
2022/11/25 05:58:29;;;;;;;1.00;1.00;;;;;;;;;;5034638;28;20462;-69
2022/11/25 06:00:57;;;;;;;1.05;1.05;;;;;;;;;;5049814;28;20808;-69
2022/11/25 06:03:24;;;;;;;1.30;1.20;;;;;;;;;;5039300;28;20201;-69
2022/11/25 06:05:53;;;;;;;1.25;1.15;;;;;;;;;;5054231;28;20232;-69
2022/11/25 06:08:20;;;;;;;1.05;1.05;;;;;;;;;;5054131;28;20730;-69
2022/11/25 06:10:48;;;;;;;1.20;1.10;;;;;;;;;;5055718;28;20212;-69
2022/11/25 06:13:16;;;;;;;1.58;1.20;;;;;;;;;;5053453;28;20594;-69
2022/11/25 06:15:44;;;;;;;1.35;1.25;;;;;;;;;;5053159;28;20193;-69
2022/11/25 06:18:12;;;;;;;1.15;1.05;;;;;;;;;;5053787;28;20215;-69
2022/11/25 06:20:39;;;;;;;1.15;1.10;;;;;;;;;;5052999;28;20223;-69
2022/11/25 06:23:08;;;;;;;1.00;1.00;;;;;;;;;;5054142;28;20197;-70
2022/11/25 06:25:36;;;;;;;1.20;1.10;;;;;;;;;;5054244;28;20225;-69
2022/11/25 06:28:04;;;;;;;0.90;0.90;;;;;;;;;;5054279;28;20204;-69
2022/11/25 06:30:31;;;;;;;1.33;1.23;;;;;;;;;;5054256;28;20220;-69
2022/11/25 06:32:59;;;;;;;1.30;0.90;;;;;;;;;;5051727;28;20207;-69
2022/11/25 06:35:26;;;;;;;1.27;1.17;;;;;;;;;;5048642;28;20217;-69
2022/11/25 06:37:54;;;;;;;1.10;1.00;;;;;;;;;;5034713;28;20490;-69
2022/11/25 06:40:22;;;;;;;1.15;1.10;;;;;;;;;;5034232;28;20572;-69
2022/11/25 06:42:50;;;;;;;1.10;1.00;;;;;;;;;;5032452;28;20193;-69
2022/11/25 06:45:17;;;;;;;1.05;0.95;;;;;;;;;;5034253;28;20221;-69
2022/11/25 06:47:45;;;;;;;1.08;0.98;;;;;;;;;;5032570;28;20193;-69
2022/11/25 06:50:12;;;;;;;1.08;0.88;;;;;;;;;;5036641;28;20264;-69
2022/11/25 06:52:39;;;;;;;0.98;0.98;;;;;;;;;;5037334;28;20205;-69
2022/11/25 06:55:07;;;;;;;1.10;1.00;;;;;;;;;;5037189;28;20204;-69
2022/11/25 06:57:36;;;;;;;1.20;1.00;;;;;;;;;;5040984;28;20603;-69
2022/11/25 07:00:04;;;;;;;0.90;0.90;;;;;;;;;;5057109;28;20233;-69
2022/11/25 07:02:31;;;;;;;0.93;0.93;;;;;;;;;;5044637;28;20212;-69
2022/11/25 07:04:58;;;;;;;1.17;1.10;;;;;;;;;;5038101;28;20231;-69
2022/11/25 07:07:26;;;;;;;1.02;0.93;;;;;;;;;;5038240;28;20532;-69
2022/11/25 07:09:54;;;;;;;1.15;1.00;;;;;;;;;;5038073;28;20193;-69
2022/11/25 07:12:21;;;;;;;1.00;0.90;;;;;;;;;;5038344;28;20198;-69
2022/11/25 07:14:52;;;;;;;1.10;1.00;;;;;;;;;;5038434;28;20212;-69
2022/11/25 07:17:19;;;;;;;1.10;1.00;;;;;;;;;;5042588;28;20232;-69
2022/11/25 07:19:47;;;;;;;0.90;0.90;;;;;;;;;;5049273;28;20604;-69
2022/11/25 07:22:14;;;;;;;1.10;0.88;;;;;;;;;;5038435;28;20218;-69
2022/11/25 07:24:42;;;;;;;1.15;1.05;;;;;;;;;;5046044;28;20219;-69
2022/11/25 07:27:09;;;;;;;0.93;0.93;;;;;;;;;;5058142;28;20205;-69
2022/11/25 07:29:36;;;;;;;0.90;0.90;;;;;;;;;;5058158;28;20567;-69
2022/11/25 07:32:05;;;;;;;1.48;0.90;;;;;;;;;;5046734;28;20202;-69
2022/11/25 07:34:33;;;;;;;0.80;0.80;;;;;;;;;;5037121;28;20204;-69
2022/11/25 07:37:00;;;;;;;0.90;0.90;;;;;;;;;;5037492;28;20232;-69
2022/11/25 07:39:27;;;;;;;0.93;0.93;;;;;;;;;;5042524;28;20576;-69
2022/11/25 07:41:55;;;;;;;1.02;0.95;;;;;;;;;;5043378;28;20618;-69
2022/11/25 07:44:22;;;;;;;0.90;0.80;;;;;;;;;;5037587;28;20476;-69
2022/11/25 07:46:50;;;;;;;0.70;0.70;;;;;;;;;;5036505;28;20489;-69
2022/11/25 07:49:21;;;;;;;0.82;0.82;;;;;;;;;;5037072;28;20217;-69
2022/11/25 07:51:49;;;;;;;0.90;0.90;;;;;;;;;;5053409;28;20670;-69
2022/11/25 07:54:17;;;;;;;0.80;0.80;;;;;;;;;;5037201;28;20205;-69
2022/11/25 07:56:45;;;;;;;1.10;1.00;;;;;;;;;;5049266;28;20201;-69
2022/11/25 07:59:13;;;;;;;0.90;0.90;;;;;;;;;;5044582;28;20209;-69
2022/11/25 08:01:41;;;;;;;0.80;0.80;;;;;;;;;;5037128;28;20204;-69
2022/11/25 08:04:09;;;;;;;0.90;0.90;;;;;;;;;;5045992;28;20583;-68
2022/11/25 08:06:41;;;;;;;1.00;0.90;;;;;;;;;;5056301;28;20217;-69
2022/11/25 08:09:09;;;;;;;1.00;0.90;;;;;;;;;;5054725;28;20293;-69
2022/11/25 08:11:37;;;;;;;1.15;1.10;;;;;;;;;;5051826;28;20734;-69
2022/11/25 08:14:04;;;;;;;1.00;0.82;;;;;;;;;;5053464;28;20606;-69
2022/11/25 08:16:32;;;;;;;1.00;1.00;;;;;;;;;;5055465;28;20199;-69
2022/11/25 08:19:00;;;;;;;1.00;0.90;;;;;;;;;;5054624;28;20228;-70
2022/11/25 08:21:28;;;;;;;0.90;0.90;;;;;;;;;;5045597;28;20237;-69
2022/11/25 08:23:57;;;;;;;1.13;1.02;;;;;;;;;;5036386;28;20198;-69
2022/11/25 08:26:25;;;;;;;1.00;1.00;;;;;;;;;;5036456;28;20486;-69
2022/11/25 08:28:53;;;;;;;0.90;0.80;;;;;;;;;;5053723;28;20208;-69
2022/11/25 08:31:22;;;;;;;0.90;0.90;;;;;;;;;;5051609;28;20244;-69
2022/11/25 08:33:49;;;;;;;0.90;0.90;;;;;;;;;;5035905;28;20257;-69
2022/11/25 08:36:17;;;;;;;0.93;0.88;;;;;;;;;;5036681;28;20198;-69
2022/11/25 08:38:45;;;;;;;1.30;1.20;;;;;;;;;;5036363;28;20202;-69
2022/11/25 08:41:15;;;;;;;1.67;1.10;;;;;;;;;;5036163;28;20269;-69
2022/11/25 08:43:43;;;;;;;1.00;0.90;;;;;;;;;;5044829;28;20202;-69
2022/11/25 08:46:11;;;;;;;0.80;0.80;;;;;;;;;;5036907;28;20240;-69
2022/11/25 08:48:38;;;;;;;1.23;0.90;;;;;;;;;;5035694;28;20198;-69
2022/11/25 08:51:08;;;;;;;0.80;0.80;;;;;;;;;;5036033;28;20216;-69
2022/11/25 08:53:36;;;;;;;1.80;0.93;;;;;;;;;;5037084;28;20202;-69
2022/11/25 08:56:04;;;;;;;3.80;1.00;;;;;;;;;;5050917;28;20266;-69
2022/11/25 08:58:33;;;;;;;2.47;0.93;;;;;;;;;;5055316;28;20193;-69
2022/11/25 09:01:01;;;;;;;1.40;0.95;;;;;;;;;;5055477;28;20255;-69
2022/11/25 09:03:29;;;;;;;1.48;1.17;;;;;;;;;;5055261;28;20551;-69
2022/11/25 09:05:56;;;;;;;1.15;1.00;;;;;;;;;;5055496;28;20224;-69
2022/11/25 09:08:24;;;;;;;1.27;1.00;;;;;;;;;;5055620;28;20512;-69
2022/11/25 09:10:53;;;;;;;1.10;1.00;;;;;;;;;;5037555;28;20654;-69
2022/11/25 09:13:20;;;;;;;1.55;1.10;;;;;;;;;;5048556;28;20293;-69
2022/11/25 09:15:49;;;;;;;1.92;1.00;;;;;;;;;;5055134;28;20189;-69
2022/11/25 09:18:18;;;;;;;1.02;0.93;;;;;;;;;;5037388;28;20487;-69
2022/11/25 09:20:47;;;;;;;1.27;1.00;;;;;;;;;;5035915;28;20213;-69
2022/11/25 09:23:15;;;;;;;1.20;1.10;;;;;;;;;;5035096;28;20572;-69
2022/11/25 09:25:43;;;;;;;1.73;0.90;;;;;;;;;;5035503;28;20213;-69
2022/11/25 09:28:10;;;;;;;1.88;1.00;;;;;;;;;;5035595;28;20313;-69
2022/11/25 09:30:38;;;;;;;1.42;0.93;;;;;;;;;;5034671;28;20201;-69
2022/11/25 09:33:07;;;;;;;2.38;1.10;;;;;;;;;;5051402;28;20201;-69
2022/11/25 09:35:35;;;;;;;3.33;1.33;;;;;;;;;;5055812;28;20228;-70
2022/11/25 09:38:02;;;;;;;4.07;1.10;;;;;;;;;;5054675;28;20262;-69
2022/11/25 09:40:33;;;;;;;2.10;1.10;;;;;;;;;;5055543;28;20209;-69
2022/11/25 09:48:55;;;;;;;5.15;1.33;;;;;;;;;;5034067;28;20193;-69
2022/11/25 09:51:24;;;;;;;2.42;1.55;;;;;;;;;;5034387;28;20560;-69
2022/11/25 09:53:53;;;;;;;1.73;1.00;;;;;;;;;;5036987;28;20676;-69
2022/11/25 09:56:26;;;;;;;1.85;1.00;;;;;;;;;;5047481;28;20193;-69
2022/11/25 09:58:56;;;;;;;1.73;1.30;;;;;;;;;;5034303;28;20618;-69
2022/11/25 10:01:25;;;;;;;1.45;1.10;;;;;;;;;;5035991;28;20248;-69
2022/11/25 10:03:57;;;;;;;3.25;1.60;;;;;;;;;;5053366;28;20262;-69
2022/11/25 10:06:26;;;;;;;3.05;1.17;;;;;;;;;;5053495;28;20225;-69
2022/11/25 10:08:55;;;;;;;2.25;1.02;;;;;;;;;;5052489;28;20224;-69
2022/11/25 10:11:31;;;;;;;1.98;1.10;;;;;;;;;;5053304;28;20193;-69
2022/11/25 10:14:00;;;;;;;1.58;1.45;;;;;;;;;;5053061;28;20201;-69
2022/11/25 10:16:34;;;;;;;1.67;1.30;;;;;;;;;;5043821;28;20204;-69
2022/11/25 10:19:03;;;;;;;2.60;1.20;;;;;;;;;;5052350;28;20208;-69
2022/11/25 10:21:31;;;;;;;2.20;1.33;;;;;;;;;;5039060;28;20209;-69
2022/11/25 10:23:58;;;;;;;1.60;1.40;;;;;;;;;;5033729;28;20626;-69
2022/11/25 10:26:30;;;;;;;3.05;1.45;;;;;;;;;;5034682;28;20221;-69
2022/11/25 10:29:03;;;;;;;2.33;1.45;;;;;;;;;;5034132;28;20204;-69
2022/11/25 10:31:35;;;;;;;6.18;1.25;;;;;;;;;;5035529;28;20291;-69
2022/11/25 10:34:12;;;;;;;5.05;1.55;;;;;;;;;;5052668;28;20196;-69
2022/11/25 10:36:41;;;;;;;1.95;1.20;;;;;;;;;;5047322;28;20196;-69
2022/11/25 10:39:14;;;;;;;4.10;1.40;;;;;;;;;;5033744;28;20297;-69
2022/11/25 10:41:45;;;;;;;2.03;1.33;;;;;;;;;;5034172;28;20202;-69
2022/11/25 10:44:19;;;;;;;3.15;1.38;;;;;;;;;;5033801;28;20241;-70
2022/11/25 10:46:52;;;;;;;2.17;1.15;;;;;;;;;;5042623;28;20221;-69
2022/11/25 10:49:26;;;;;;;1.83;1.30;;;;;;;;;;5053888;28;20219;-69
2022/11/25 10:51:56;;;;;;;4.28;1.40;;;;;;;;;;5052261;28;20200;-69
2022/11/25 10:54:25;;;;;;;3.42;1.50;;;;;;;;;;5045168;28;20458;-69
2022/11/25 10:56:55;;;;;;;2.78;1.35;;;;;;;;;;5036216;28;20492;-69
2022/11/25 10:59:24;;;;;;;2.55;1.45;;;;;;;;;;5031697;28;20205;-69
2022/11/25 11:01:53;;;;;;;4.00;1.70;;;;;;;;;;5032487;28;20201;-69
2022/11/25 11:04:21;;;;;;;2.90;1.27;;;;;;;;;;5037173;28;20198;-69
2022/11/25 11:06:50;;;;;;;2.20;1.55;;;;;;;;;;5045605;28;20221;-69
2022/11/25 11:09:35;;;;;;;2.53;1.27;;;;;;;;;;5053588;28;20243;-69
2022/11/25 11:12:17;;;;;;;4.20;1.90;;;;;;;;;;5033579;28;20215;-69
2022/11/25 11:14:45;;;;;;;4.18;1.60;;;;;;;;;;5030426;28;20212;-69
2022/11/25 11:17:25;;;;;;;3.40;1.33;;;;;;;;;;5032214;28;20193;-69
2022/11/25 11:20:03;;;;;;;5.03;1.65;;;;;;;;;;5033471;28;20213;-70
2022/11/25 11:22:30;;;;;;;3.65;1.60;;;;;;;;;;5041765;28;20474;-69
2022/11/25 11:25:17;;;;;;;4.32;1.45;;;;;;;;;;5052676;28;20207;-69
2022/11/25 11:27:46;;;;;;;3.75;1.60;;;;;;;;;;5052561;28;20228;-69
2022/11/25 11:30:16;;;;;;;2.88;1.67;;;;;;;;;;5052866;28;20201;-69
2022/11/25 11:32:46;;;;;;;2.53;1.40;;;;;;;;;;5052489;28;20205;-69
2022/11/25 11:35:19;;;;;;;2.60;1.50;;;;;;;;;;5051747;28;20585;-69
2022/11/25 11:37:48;;;;;;;1.88;1.58;;;;;;;;;;5037343;28;20201;-69
2022/11/25 11:40:23;;;;;;;1.83;1.58;;;;;;;;;;5046822;28;20201;-69
2022/11/25 11:42:58;;;;;;;2.00;1.45;;;;;;;;;;5035829;28;20606;-69
2022/11/25 11:45:34;;;;;;;3.47;1.50;;;;;;;;;;5034831;28;20208;-69
2022/11/25 11:48:10;;;;;;;4.15;1.83;;;;;;;;;;5035019;28;20600;-69
2022/11/25 11:50:41;;;;;;;3.53;1.50;;;;;;;;;;5035522;28;20723;-69
2022/11/25 11:53:14;;;;;;;2.60;1.58;;;;;;;;;;5035521;28;20194;-69
2022/11/25 11:55:56;;;;;;;2.08;1.30;;;;;;;;;;5039873;28;20197;-69
2022/11/25 11:58:29;;;;;;;2.65;1.40;;;;;;;;;;5055201;28;20197;-70
2022/11/25 12:01:02;;;;;;;2.88;1.50;;;;;;;;;;5054688;28;20229;-69
2022/11/25 12:03:31;;;;;;;5.38;1.75;;;;;;;;;;5040376;28;20212;-69
2022/11/25 12:06:03;;;;;;;4.40;1.52;;;;;;;;;;5054332;28;20327;-69
2022/11/25 12:08:32;;;;;;;2.95;1.42;;;;;;;;;;5054096;28;20209;-69
2022/11/25 12:11:03;;;;;;;3.50;1.40;;;;;;;;;;5054223;28;20197;-69
2022/11/25 12:13:36;;;;;;;4.20;1.70;;;;;;;;;;5047794;28;20517;-69
2022/11/25 12:16:06;;;;;;;4.50;1.83;;;;;;;;;;5037715;28;20185;-69
2022/11/25 12:18:42;;;;;;;7.05;1.70;;;;;;;;;;5037226;28;20202;-69
2022/11/25 12:21:13;;;;;;;3.40;1.65;;;;;;;;;;5054340;28;20203;-69
2022/11/25 12:23:45;;;;;;;4.28;1.67;;;;;;;;;;5054611;28;20193;-69
2022/11/25 12:26:14;;;;;;;3.10;1.50;;;;;;;;;;5054804;28;20229;-69
2022/11/25 12:28:44;;;;;;;1.42;1.33;;;;;;;;;;5054657;28;20275;-69
2022/11/25 12:31:13;;;;;;;4.53;1.70;;;;;;;;;;5054627;28;20197;-69
2022/11/25 12:33:54;;;;;;;2.22;1.48;;;;;;;;;;5054992;28;20204;-69
2022/11/25 12:36:27;;;;;;;3.17;1.42;;;;;;;;;;5052910;28;20197;-69
2022/11/25 12:38:57;;;;;;;2.75;1.50;;;;;;;;;;5054707;28;20298;-70
2022/11/25 12:41:28;;;;;;;2.22;1.30;;;;;;;;;;5054395;28;20612;-69
2022/11/25 12:43:57;;;;;;;4.65;2.00;;;;;;;;;;5034584;28;20201;-69
2022/11/25 12:46:26;;;;;;;3.67;1.52;;;;;;;;;;5033959;28;20366;-69
2022/11/25 12:48:54;;;;;;;2.95;1.70;;;;;;;;;;5033810;28;20201;-69
2022/11/25 12:51:32;;;;;;;3.53;1.83;;;;;;;;;;5051270;28;20205;-69
2022/11/25 12:54:05;;;;;;;2.67;1.40;;;;;;;;;;5035034;28;20215;-69
2022/11/25 12:56:42;;;;;;;2.58;1.35;;;;;;;;;;5034603;28;20204;-69
2022/11/25 12:59:18;;;;;;;2.70;1.73;;;;;;;;;;5034659;28;20302;-69
2022/11/25 13:01:59;;;;;;;3.53;1.70;;;;;;;;;;5040345;28;20206;-69
2022/11/25 13:04:33;;;;;;;3.30;1.60;;;;;;;;;;5054373;28;20465;-69
2022/11/25 13:07:15;;;;;;;4.45;1.70;;;;;;;;;;5043730;28;20313;-69
2022/11/25 13:09:56;;;;;;;3.03;1.50;;;;;;;;;;5031284;28;20209;-69
2022/11/25 13:12:32;;;;;;;4.28;1.83;;;;;;;;;;5033422;28;20209;-69
2022/11/25 13:15:05;;;;;;;4.00;1.90;;;;;;;;;;5033629;28;20207;-69
2022/11/25 13:17:36;;;;;;;4.05;2.05;;;;;;;;;;5034281;28;20204;-69
2022/11/25 13:20:22;;;;;;;4.40;1.90;;;;;;;;;;5035669;28;20198;-70
2022/11/25 13:23:02;;;;;;;3.72;2.03;;;;;;;;;;5037385;28;20196;-70
2022/11/25 13:25:31;;;;;;;3.38;1.80;;;;;;;;;;5053569;28;20201;-69
2022/11/25 13:27:59;;;;;;;3.03;1.80;;;;;;;;;;5053816;28;20213;-69
2022/11/25 13:30:37;;;;;;;3.55;2.10;;;;;;;;;;5054284;28;20204;-70
2022/11/25 13:33:19;;;;;;;2.95;1.77;;;;;;;;;;5035448;28;20194;-70
2022/11/25 13:35:53;;;;;;;5.22;2.13;;;;;;;;;;5047143;28;20205;-69
2022/11/25 13:38:38;;;;;;;5.10;1.90;;;;;;;;;;5053418;28;20220;-70
2022/11/25 13:41:21;;;;;;;3.60;1.80;;;;;;;;;;5053225;28;20205;-70
2022/11/25 13:44:00;;;;;;;3.70;1.95;;;;;;;;;;5053047;28;20201;-69
2022/11/25 13:46:35;;;;;;;3.60;1.83;;;;;;;;;;5053252;28;20212;-69
2022/11/25 13:49:02;;;;;;;4.70;2.10;;;;;;;;;;5051403;28;20192;-70
2022/11/25 13:51:30;;;;;;;4.13;2.15;;;;;;;;;;5033306;28;20201;-69
2022/11/25 13:53:58;;;;;;;4.50;1.98;;;;;;;;;;5034027;28;20205;-70
2022/11/25 13:56:28;;;;;;;3.97;2.08;;;;;;;;;;5034304;28;20197;-70
2022/11/25 13:59:13;;;;;;;4.38;1.90;;;;;;;;;;5033582;28;20228;-70
2022/11/25 14:01:52;;;;;;;3.72;1.95;;;;;;;;;;5039377;28;20193;-70
2022/11/25 14:04:23;;;;;;;2.75;1.90;;;;;;;;;;5041622;28;20206;-70
2022/11/25 14:07:02;;;;;;;3.47;1.73;;;;;;;;;;5035375;28;20307;-70
2022/11/25 14:09:43;;;;;;;3.88;1.80;;;;;;;;;;5053312;28;20639;-70
2022/11/25 14:12:16;;;;;;;2.42;1.65;;;;;;;;;;5053642;28;20200;-70
2022/11/25 14:14:55;;;;;;;3.83;1.77;;;;;;;;;;5040410;28;20212;-70
2022/11/25 14:17:31;;;;;;;3.47;1.70;;;;;;;;;;5034038;28;20902;-69
2022/11/25 14:20:14;;;;;;;2.45;1.80;;;;;;;;;;5033988;28;20209;-70
2022/11/25 14:22:56;;;;;;;3.40;1.83;;;;;;;;;;5034092;28;20782;-69
2022/11/25 14:25:26;;;;;;;2.70;1.73;;;;;;;;;;5033614;28;20275;-70
2022/11/25 14:27:58;;;;;;;2.42;1.55;;;;;;;;;;5039469;28;20533;-70
2022/11/25 14:30:26;;;;;;;7.03;5.50;;;;;;;;;;5045548;28;20208;-70
2022/11/25 14:32:57;;;;;;;7.78;6.50;;;;;;;;;;5046859;28;20608;-70
2022/11/25 14:35:28;;;;;;;8.90;6.03;;;;;;;;;;5036666;28;20193;-70
2022/11/25 14:38:00;;;;;;;6.68;5.28;;;;;;;;;;5052345;28;20193;-70
2022/11/25 14:40:29;;;;;;;7.18;5.53;;;;;;;;;;5045502;28;20198;-69
2022/11/25 14:43:00;;;;;;;6.97;5.15;;;;;;;;;;5033773;28;20750;-70
2022/11/25 14:45:29;;;;;;;5.40;4.78;;;;;;;;;;5034950;28;20201;-70
2022/11/25 14:47:58;;;;;;;5.40;4.85;;;;;;;;;;5051399;28;20224;-70
2022/11/25 14:50:25;;;;;;;5.47;4.55;;;;;;;;;;5052904;28;20209;-70
2022/11/25 14:52:53;;;;;;;7.20;4.88;;;;;;;;;;5053883;28;20201;-70
2022/11/25 14:55:28;;;;;;;7.75;4.90;;;;;;;;;;5052001;28;20205;-69
2022/11/25 14:57:56;;;;;;;6.47;4.78;;;;;;;;;;5044291;28;20185;-70
2022/11/25 15:00:23;;;;;;;6.25;4.00;;;;;;;;;;5032681;28;20226;-70
2022/11/25 15:02:55;;;;;;;6.18;4.78;;;;;;;;;;5048214;28;20208;-70
2022/11/25 15:05:26;;;;;;;5.85;4.20;;;;;;;;;;5033406;28;20202;-70
2022/11/25 15:08:01;;;;;;;5.85;4.45;;;;;;;;;;5032488;28;20221;-70
2022/11/25 15:10:32;;;;;;;4.63;4.20;;;;;;;;;;5045490;28;20200;-70